Terminal Aerodrome Forecast
Issued by NWS Sterling, VA

Current Version | Previous Version | Text Only | Print | Product List | Glossary Off
Versions: 1 2 3 4 5 6 7 8 9 10 11 12 13 14 15 16 17 18 19 20 21 22 23 24

000
FTUS41 KLWX 302100 AAB
TAFMRB
TAF AMD
KMRB 302158Z 3022/0118 10006KT P6SM SCT250
     FM302230 15006KT P6SM VCTS SCT035CB BKN060
     FM010000 VRB03KT P6SM BKN060
     FM010400 00000KT 2SM BR BKN060
     FM010900 00000KT 1SM BR BKN001
     FM011300 00000KT 2SM BR BKN003
     FM011500 00000KT P6SM BKN015
     FM011600 VRB03KT P6SM BKN025=

USA.gov is the U.S. government's official web portal to all federal, state and local government web resources and services.